LEIB Airport Informations

Runway Information
Runway 06 Length 9186 ft width 148 ft
Elevation 13 ft Threshold ft Heading 62
Runway 24 Length 9186 ft Width 148 ft
Elevation 16 ft Threshold ft Heading 242
Airport Frequencies
Type APP Name PALMA APP Frequency 118.125 MHZ
Type APP Name APP Frequency 119.8 MHZ
Type ATIS Name ATIS Frequency 117.8 MHZ
Type GND Name GND Frequency 121.8 MHZ
Type TWR Name TWR Frequency 118.5 MHZ
Airport Navaids
Type VOR-DME Name Ibiza Frequency 117800 KHZ
Type NDB Name Ibiza Frequency 394 KHZ
Airport Weather Information & NOTAM
ADDS - METARS form results

(2050 UTC 19 August 2022)
Data provider http://aviationweather.gov/metar/data/
 
METAR text: LEIB 192030Z 36004KT 340V040 CAVOK 25/17 Q1018 NOSIG
Conditions at: LEIB (IBIZA/ES CODOLA , ES) observed 2030 UTC 19 August 2022
Temperature: 25.0°C (77°F)
Dewpoint: 17.0°C (63°F) [RH = 61%]
Pressure (altimeter): 30.06 inches Hg (1018.0 mb)
Winds: from the N (360 degrees) at 5 MPH (4 knots; 2.1 m/s)
Visibility: 6 or more miles (10+ km)
Ceiling: ceiling and visibility are OK
Clouds: unknown
Weather: no significant weather observed at this time

METAR text: LEIB 192000Z 34003KT 240V030 CAVOK 25/18 Q1018 NOSIG
Conditions at: LEIB (IBIZA/ES CODOLA , ES) observed 2000 UTC 19 August 2022
Temperature: 25.0°C (77°F)
Dewpoint: 18.0°C (64°F) [RH = 65%]
Pressure (altimeter): 30.06 inches Hg (1018.0 mb)
Winds: from the NNW (340 degrees) at 3 MPH (3 knots; 1.5 m/s)
Visibility: 6 or more miles (10+ km)
Ceiling: ceiling and visibility are OK
Clouds: unknown
Weather: no significant weather observed at this time

Forecast for: LEIB (IBIZA/ES CODOLA , ES)
Text: TAF LEIB 192000Z 1921/2021 36004KT 9999 FEW020 TX31/2012Z TN23/2005Z
Forecast period: 2100 UTC 19 August 2022 to 0800 UTC 20 August 2022
Forecast type: FROM: standard forecast or significant change
Winds: from the N (360 degrees) at 5 MPH (4 knots; 2.1 m/s)
Visibility: 6 or more miles (10+ km)
Ceiling: at least 12,000 feet AGL
Clouds: few clouds at 2000 feet AGL
Weather: no significant weather forecast for this period
Text: BECMG 2008/2010 12007KT
Forecast period: 0800 to 2100 UTC 20 August 2022
Forecast type: BECOMING: Conditions expected to become as follows by 1000 UTC 20 August 2022
Winds: from the ESE (120 degrees) at 8 MPH (7 knots; 3.6 m/s)
Visibility: 6 or more miles (10+ km)
Ceiling: at least 12,000 feet AGL
Clouds: few clouds at 2000 feet AGL
Weather: no significant weather forecast for this period